sensor_id;sensor_type;location;lat;lon;timestamp;P1;durP1;ratioP1;P2;durP2;ratioP2
11665;SDS011;5889;51.350;6.708;2023-04-24T00:01:33;2.50;;;1.20;;
11665;SDS011;5889;51.350;6.708;2023-04-24T00:04:02;3.70;;;1.17;;
11665;SDS011;5889;51.350;6.708;2023-04-24T00:06:29;2.47;;;1.20;;
11665;SDS011;5889;51.350;6.708;2023-04-24T00:08:58;2.10;;;1.23;;
11665;SDS011;5889;51.350;6.708;2023-04-24T00:11:26;2.37;;;1.50;;
11665;SDS011;5889;51.350;6.708;2023-04-24T00:13:53;2.07;;;1.40;;
11665;SDS011;5889;51.350;6.708;2023-04-24T00:16:20;1.60;;;1.50;;
11665;SDS011;5889;51.350;6.708;2023-04-24T00:18:47;1.87;;;1.30;;
11665;SDS011;5889;51.350;6.708;2023-04-24T00:21:17;2.87;;;1.60;;
11665;SDS011;5889;51.350;6.708;2023-04-24T00:23:44;3.30;;;1.50;;
11665;SDS011;5889;51.350;6.708;2023-04-24T00:26:11;2.03;;;1.57;;
11665;SDS011;5889;51.350;6.708;2023-04-24T00:28:40;2.50;;;1.60;;
11665;SDS011;5889;51.350;6.708;2023-04-24T00:31:06;2.10;;;1.90;;
11665;SDS011;5889;51.350;6.708;2023-04-24T00:33:33;1.70;;;1.60;;
11665;SDS011;5889;51.350;6.708;2023-04-24T00:36:00;3.00;;;1.80;;
11665;SDS011;5889;51.350;6.708;2023-04-24T00:38:27;1.70;;;1.60;;
11665;SDS011;5889;51.350;6.708;2023-04-24T00:40:54;2.07;;;1.60;;
11665;SDS011;5889;51.350;6.708;2023-04-24T00:43:21;3.93;;;1.70;;
11665;SDS011;5889;51.350;6.708;2023-04-24T00:45:49;2.37;;;1.97;;
11665;SDS011;5889;51.350;6.708;2023-04-24T00:48:16;6.70;;;3.47;;
11665;SDS011;5889;51.350;6.708;2023-04-24T00:50:44;4.47;;;3.23;;
11665;SDS011;5889;51.350;6.708;2023-04-24T00:53:11;5.60;;;3.53;;
11665;SDS011;5889;51.350;6.708;2023-04-24T00:55:38;6.00;;;4.00;;
11665;SDS011;5889;51.350;6.708;2023-04-24T00:58:05;7.23;;;3.90;;
11665;SDS011;5889;51.350;6.708;2023-04-24T01:00:32;5.10;;;3.80;;
11665;SDS011;5889;51.350;6.708;2023-04-24T01:03:01;5.33;;;4.30;;
11665;SDS011;5889;51.350;6.708;2023-04-24T01:05:32;6.20;;;4.80;;
11665;SDS011;5889;51.350;6.708;2023-04-24T01:07:59;7.10;;;4.60;;
11665;SDS011;5889;51.350;6.708;2023-04-24T01:10:27;7.63;;;5.10;;
11665;SDS011;5889;51.350;6.708;2023-04-24T01:12:57;8.13;;;4.57;;
11665;SDS011;5889;51.350;6.708;2023-04-24T01:15:24;9.23;;;5.40;;
11665;SDS011;5889;51.350;6.708;2023-04-24T01:17:51;9.47;;;5.50;;
11665;SDS011;5889;51.350;6.708;2023-04-24T01:20:20;6.43;;;4.73;;
11665;SDS011;5889;51.350;6.708;2023-04-24T01:22:49;5.23;;;4.73;;
11665;SDS011;5889;51.350;6.708;2023-04-24T01:25:16;5.17;;;4.47;;
11665;SDS011;5889;51.350;6.708;2023-04-24T01:27:43;6.73;;;4.93;;
11665;SDS011;5889;51.350;6.708;2023-04-24T01:30:11;8.03;;;4.73;;
11665;SDS011;5889;51.350;6.708;2023-04-24T01:32:38;6.87;;;5.07;;
11665;SDS011;5889;51.350;6.708;2023-04-24T01:35:07;5.30;;;4.30;;
11665;SDS011;5889;51.350;6.708;2023-04-24T01:37:34;7.53;;;5.23;;
11665;SDS011;5889;51.350;6.708;2023-04-24T01:40:03;10.30;;;5.87;;
11665;SDS011;5889;51.350;6.708;2023-04-24T01:42:32;6.83;;;5.23;;
11665;SDS011;5889;51.350;6.708;2023-04-24T01:44:59;9.37;;;5.70;;
11665;SDS011;5889;51.350;6.708;2023-04-24T01:47:28;7.80;;;5.90;;
11665;SDS011;5889;51.350;6.708;2023-04-24T01:49:57;7.00;;;5.67;;
11665;SDS011;5889;51.350;6.708;2023-04-24T01:52:24;9.47;;;6.30;;
11665;SDS011;5889;51.350;6.708;2023-04-24T01:54:52;10.27;;;6.73;;
11665;SDS011;5889;51.350;6.708;2023-04-24T01:57:22;8.00;;;6.30;;
11665;SDS011;5889;51.350;6.708;2023-04-24T01:59:49;9.40;;;6.43;;
11665;SDS011;5889;51.350;6.708;2023-04-24T02:02:20;9.20;;;6.67;;
11665;SDS011;5889;51.350;6.708;2023-04-24T02:04:49;9.97;;;7.23;;
11665;SDS011;5889;51.350;6.708;2023-04-24T02:07:16;12.73;;;7.33;;
11665;SDS011;5889;51.350;6.708;2023-04-24T02:09:43;10.60;;;7.80;;
11665;SDS011;5889;51.350;6.708;2023-04-24T02:12:10;13.80;;;7.80;;
11665;SDS011;5889;51.350;6.708;2023-04-24T02:14:38;13.97;;;8.60;;
11665;SDS011;5889;51.350;6.708;2023-04-24T02:17:05;11.83;;;8.33;;
11665;SDS011;5889;51.350;6.708;2023-04-24T02:19:32;17.17;;;9.03;;
11665;SDS011;5889;51.350;6.708;2023-04-24T02:21:59;17.13;;;9.20;;
11665;SDS011;5889;51.350;6.708;2023-04-24T02:24:26;13.47;;;9.57;;
11665;SDS011;5889;51.350;6.708;2023-04-24T02:26:53;18.93;;;10.13;;
11665;SDS011;5889;51.350;6.708;2023-04-24T02:29:20;14.57;;;10.03;;
11665;SDS011;5889;51.350;6.708;2023-04-24T02:31:49;15.83;;;9.77;;
11665;SDS011;5889;51.350;6.708;2023-04-24T02:34:16;13.37;;;8.73;;
11665;SDS011;5889;51.350;6.708;2023-04-24T02:36:43;13.73;;;9.00;;
11665;SDS011;5889;51.350;6.708;2023-04-24T02:39:10;16.93;;;10.03;;
11665;SDS011;5889;51.350;6.708;2023-04-24T02:41:37;18.67;;;9.97;;
11665;SDS011;5889;51.350;6.708;2023-04-24T02:44:03;14.30;;;10.40;;
11665;SDS011;5889;51.350;6.708;2023-04-24T02:46:30;19.57;;;10.23;;
11665;SDS011;5889;51.350;6.708;2023-04-24T02:48:59;21.40;;;11.27;;
11665;SDS011;5889;51.350;6.708;2023-04-24T02:51:26;20.83;;;10.53;;
11665;SDS011;5889;51.350;6.708;2023-04-24T02:53:53;20.27;;;12.17;;
11665;SDS011;5889;51.350;6.708;2023-04-24T02:56:20;16.17;;;11.83;;
11665;SDS011;5889;51.350;6.708;2023-04-24T02:58:47;22.60;;;11.37;;
11665;SDS011;5889;51.350;6.708;2023-04-24T03:01:14;22.97;;;11.70;;
11665;SDS011;5889;51.350;6.708;2023-04-24T03:03:40;18.33;;;10.97;;
11665;SDS011;5889;51.350;6.708;2023-04-24T03:06:09;18.83;;;11.97;;
11665;SDS011;5889;51.350;6.708;2023-04-24T03:08:36;20.63;;;11.47;;
11665;SDS011;5889;51.350;6.708;2023-04-24T03:11:03;17.50;;;12.20;;
11665;SDS011;5889;51.350;6.708;2023-04-24T03:13:30;22.97;;;11.93;;
11665;SDS011;5889;51.350;6.708;2023-04-24T03:15:57;19.13;;;11.60;;
11665;SDS011;5889;51.350;6.708;2023-04-24T03:18:24;21.10;;;11.40;;
11665;SDS011;5889;51.350;6.708;2023-04-24T03:20:52;21.03;;;11.87;;
11665;SDS011;5889;51.350;6.708;2023-04-24T03:23:21;23.40;;;12.33;;
11665;SDS011;5889;51.350;6.708;2023-04-24T03:25:48;21.03;;;12.43;;
11665;SDS011;5889;51.350;6.708;2023-04-24T03:28:14;17.93;;;11.57;;
11665;SDS011;5889;51.350;6.708;2023-04-24T03:30:41;18.40;;;11.40;;
11665;SDS011;5889;51.350;6.708;2023-04-24T03:33:08;22.07;;;11.90;;
11665;SDS011;5889;51.350;6.708;2023-04-24T03:35:35;19.67;;;12.37;;
11665;SDS011;5889;51.350;6.708;2023-04-24T03:38:02;16.53;;;10.97;;
11665;SDS011;5889;51.350;6.708;2023-04-24T03:40:31;20.00;;;12.20;;
11665;SDS011;5889;51.350;6.708;2023-04-24T03:42:59;17.93;;;10.50;;
11665;SDS011;5889;51.350;6.708;2023-04-24T03:45:26;18.80;;;11.00;;
11665;SDS011;5889;51.350;6.708;2023-04-24T03:47:53;17.83;;;11.30;;
11665;SDS011;5889;51.350;6.708;2023-04-24T03:50:20;16.53;;;10.90;;
11665;SDS011;5889;51.350;6.708;2023-04-24T03:52:47;16.53;;;11.10;;
11665;SDS011;5889;51.350;6.708;2023-04-24T03:55:14;17.20;;;11.10;;
11665;SDS011;5889;51.350;6.708;2023-04-24T03:57:43;17.37;;;10.83;;
11665;SDS011;5889;51.350;6.708;2023-04-24T04:00:10;19.13;;;10.87;;
11665;SDS011;5889;51.350;6.708;2023-04-24T04:02:39;21.03;;;11.43;;
11665;SDS011;5889;51.350;6.708;2023-04-24T04:05:06;16.40;;;10.70;;
11665;SDS011;5889;51.350;6.708;2023-04-24T04:07:33;17.00;;;10.70;;
11665;SDS011;5889;51.350;6.708;2023-04-24T04:10:00;21.33;;;11.17;;
11665;SDS011;5889;51.350;6.708;2023-04-24T04:12:27;15.60;;;11.03;;
11665;SDS011;5889;51.350;6.708;2023-04-24T04:14:56;17.33;;;10.60;;
11665;SDS011;5889;51.350;6.708;2023-04-24T04:17:23;16.70;;;11.30;;
11665;SDS011;5889;51.350;6.708;2023-04-24T04:19:50;14.50;;;9.57;;
11665;SDS011;5889;51.350;6.708;2023-04-24T04:22:17;15.90;;;10.27;;
11665;SDS011;5889;51.350;6.708;2023-04-24T04:24:44;14.23;;;10.53;;
11665;SDS011;5889;51.350;6.708;2023-04-24T04:27:11;15.77;;;10.30;;
11665;SDS011;5889;51.350;6.708;2023-04-24T04:29:38;18.17;;;10.40;;
11665;SDS011;5889;51.350;6.708;2023-04-24T04:32:06;16.30;;;10.73;;
11665;SDS011;5889;51.350;6.708;2023-04-24T04:34:33;18.60;;;10.33;;
11665;SDS011;5889;51.350;6.708;2023-04-24T04:37:02;14.67;;;10.00;;
11665;SDS011;5889;51.350;6.708;2023-04-24T04:39:29;12.90;;;9.37;;
11665;SDS011;5889;51.350;6.708;2023-04-24T04:41:56;12.97;;;9.43;;
11665;SDS011;5889;51.350;6.708;2023-04-24T04:44:23;14.50;;;9.57;;
11665;SDS011;5889;51.350;6.708;2023-04-24T04:46:50;15.93;;;9.40;;
11665;SDS011;5889;51.350;6.708;2023-04-24T04:49:22;16.20;;;9.60;;
11665;SDS011;5889;51.350;6.708;2023-04-24T04:51:49;16.27;;;9.33;;
11665;SDS011;5889;51.350;6.708;2023-04-24T04:54:17;12.30;;;8.40;;
11665;SDS011;5889;51.350;6.708;2023-04-24T04:56:43;10.67;;;8.33;;
11665;SDS011;5889;51.350;6.708;2023-04-24T04:59:10;10.97;;;8.40;;
11665;SDS011;5889;51.350;6.708;2023-04-24T05:01:38;12.23;;;9.20;;
11665;SDS011;5889;51.350;6.708;2023-04-24T05:04:05;14.83;;;9.53;;
11665;SDS011;5889;51.350;6.708;2023-04-24T05:06:33;15.67;;;9.33;;
11665;SDS011;5889;51.350;6.708;2023-04-24T05:09:01;11.67;;;8.60;;
11665;SDS011;5889;51.350;6.708;2023-04-24T05:11:29;13.20;;;9.03;;
11665;SDS011;5889;51.350;6.708;2023-04-24T05:13:56;13.50;;;9.20;;
11665;SDS011;5889;51.350;6.708;2023-04-24T05:16:23;14.23;;;9.80;;
11665;SDS011;5889;51.350;6.708;2023-04-24T05:18:50;13.03;;;9.37;;
11665;SDS011;5889;51.350;6.708;2023-04-24T05:21:17;17.77;;;10.63;;
11665;SDS011;5889;51.350;6.708;2023-04-24T05:23:45;14.70;;;9.93;;
11665;SDS011;5889;51.350;6.708;2023-04-24T05:26:12;13.30;;;9.70;;
11665;SDS011;5889;51.350;6.708;2023-04-24T05:28:40;18.33;;;11.73;;
11665;SDS011;5889;51.350;6.708;2023-04-24T05:31:07;14.27;;;9.93;;
11665;SDS011;5889;51.350;6.708;2023-04-24T05:33:34;14.57;;;10.33;;
11665;SDS011;5889;51.350;6.708;2023-04-24T05:36:01;14.73;;;9.83;;
11665;SDS011;5889;51.350;6.708;2023-04-24T05:38:28;13.73;;;9.43;;
11665;SDS011;5889;51.350;6.708;2023-04-24T05:40:56;15.23;;;10.23;;
11665;SDS011;5889;51.350;6.708;2023-04-24T05:43:23;15.03;;;10.10;;
11665;SDS011;5889;51.350;6.708;2023-04-24T05:45:50;11.37;;;8.90;;
11665;SDS011;5889;51.350;6.708;2023-04-24T05:48:18;12.37;;;8.70;;
11665;SDS011;5889;51.350;6.708;2023-04-24T05:50:50;17.00;;;8.93;;
11665;SDS011;5889;51.350;6.708;2023-04-24T05:53:19;12.53;;;8.37;;
11665;SDS011;5889;51.350;6.708;2023-04-24T05:55:48;13.17;;;9.07;;
11665;SDS011;5889;51.350;6.708;2023-04-24T05:58:17;15.80;;;8.47;;
11665;SDS011;5889;51.350;6.708;2023-04-24T06:00:54;12.03;;;8.73;;
11665;SDS011;5889;51.350;6.708;2023-04-24T06:06:13;14.90;;;8.97;;
11665;SDS011;5889;51.350;6.708;2023-04-24T06:08:41;15.80;;;9.30;;
11665;SDS011;5889;51.350;6.708;2023-04-24T06:11:09;11.17;;;8.53;;
11665;SDS011;5889;51.350;6.708;2023-04-24T06:13:37;13.00;;;8.60;;
11665;SDS011;5889;51.350;6.708;2023-04-24T06:16:04;11.60;;;8.13;;
11665;SDS011;5889;51.350;6.708;2023-04-24T06:18:31;13.23;;;8.60;;
11665;SDS011;5889;51.350;6.708;2023-04-24T07:10:55;5.83;;;4.90;;
11665;SDS011;5889;51.350;6.708;2023-04-24T07:13:22;7.90;;;3.97;;
11665;SDS011;5889;51.350;6.708;2023-04-24T07:15:49;4.30;;;3.40;;
11665;SDS011;5889;51.350;6.708;2023-04-24T07:18:18;5.37;;;3.77;;
11665;SDS011;5889;51.350;6.708;2023-04-24T07:20:46;5.50;;;3.97;;
11665;SDS011;5889;51.350;6.708;2023-04-24T07:23:17;2.47;;;2.00;;
11665;SDS011;5889;51.350;6.708;2023-04-24T07:25:46;3.43;;;1.83;;
11665;SDS011;5889;51.350;6.708;2023-04-24T07:28:14;1.87;;;1.67;;
11665;SDS011;5889;51.350;6.708;2023-04-24T07:30:43;5.00;;;2.10;;
11665;SDS011;5889;51.350;6.708;2023-04-24T07:33:10;1.53;;;1.40;;
11665;SDS011;5889;51.350;6.708;2023-04-24T07:35:38;1.13;;;1.03;;
11665;SDS011;5889;51.350;6.708;2023-04-24T07:38:05;1.60;;;1.00;;
11665;SDS011;5889;51.350;6.708;2023-04-24T07:40:32;1.80;;;0.70;;
11665;SDS011;5889;51.350;6.708;2023-04-24T07:42:59;1.00;;;0.80;;
11665;SDS011;5889;51.350;6.708;2023-04-24T07:45:27;1.47;;;0.90;;
11665;SDS011;5889;51.350;6.708;2023-04-24T07:47:54;1.27;;;0.83;;
11665;SDS011;5889;51.350;6.708;2023-04-24T07:50:21;1.00;;;1.00;;
11665;SDS011;5889;51.350;6.708;2023-04-24T07:52:48;1.93;;;0.80;;
11665;SDS011;5889;51.350;6.708;2023-04-24T07:55:15;2.13;;;1.30;;
11665;SDS011;5889;51.350;6.708;2023-04-24T07:58:04;0.90;;;0.90;;
11665;SDS011;5889;51.350;6.708;2023-04-24T08:01:14;1.30;;;1.20;;
11665;SDS011;5889;51.350;6.708;2023-04-24T08:03:41;3.63;;;1.53;;
11665;SDS011;5889;51.350;6.708;2023-04-24T08:06:23;5.30;;;1.90;;
11665;SDS011;5889;51.350;6.708;2023-04-24T08:08:56;1.70;;;1.60;;
11665;SDS011;5889;51.350;6.708;2023-04-24T08:11:23;3.30;;;1.63;;
11665;SDS011;5889;51.350;6.708;2023-04-24T08:13:50;3.17;;;2.37;;
11665;SDS011;5889;51.350;6.708;2023-04-24T08:16:19;3.50;;;2.60;;
11665;SDS011;5889;51.350;6.708;2023-04-24T08:18:46;4.20;;;2.20;;
11665;SDS011;5889;51.350;6.708;2023-04-24T08:21:13;1.93;;;1.70;;
11665;SDS011;5889;51.350;6.708;2023-04-24T08:23:42;3.77;;;1.47;;
11665;SDS011;5889;51.350;6.708;2023-04-24T08:26:09;2.10;;;1.37;;
11665;SDS011;5889;51.350;6.708;2023-04-24T08:28:36;1.40;;;1.10;;
11665;SDS011;5889;51.350;6.708;2023-04-24T08:31:03;1.43;;;1.00;;
11665;SDS011;5889;51.350;6.708;2023-04-24T08:33:31;2.20;;;1.30;;
11665;SDS011;5889;51.350;6.708;2023-04-24T08:35:59;1.10;;;1.00;;
11665;SDS011;5889;51.350;6.708;2023-04-24T08:38:26;1.40;;;1.10;;
11665;SDS011;5889;51.350;6.708;2023-04-24T08:40:53;1.40;;;1.20;;
11665;SDS011;5889;51.350;6.708;2023-04-24T08:43:22;1.93;;;1.30;;
11665;SDS011;5889;51.350;6.708;2023-04-24T08:45:49;2.00;;;1.40;;
11665;SDS011;5889;51.350;6.708;2023-04-24T08:48:16;3.60;;;1.30;;
11665;SDS011;5889;51.350;6.708;2023-04-24T08:50:45;2.73;;;1.50;;
11665;SDS011;5889;51.350;6.708;2023-04-24T08:53:13;3.33;;;1.60;;
11665;SDS011;5889;51.350;6.708;2023-04-24T08:55:41;1.70;;;1.60;;
11665;SDS011;5889;51.350;6.708;2023-04-24T08:58:13;3.40;;;3.00;;
11665;SDS011;5889;51.350;6.708;2023-04-24T09:00:41;5.27;;;3.20;;
11665;SDS011;5889;51.350;6.708;2023-04-24T09:03:12;7.43;;;4.40;;
11665;SDS011;5889;51.350;6.708;2023-04-24T09:05:40;4.60;;;3.90;;
11665;SDS011;5889;51.350;6.708;2023-04-24T09:08:12;4.83;;;4.33;;
11665;SDS011;5889;51.350;6.708;2023-04-24T09:10:40;7.23;;;5.40;;
11665;SDS011;5889;51.350;6.708;2023-04-24T09:13:07;6.60;;;5.53;;
11665;SDS011;5889;51.350;6.708;2023-04-24T09:15:35;9.27;;;5.67;;
11665;SDS011;5889;51.350;6.708;2023-04-24T09:18:02;9.07;;;6.67;;
11665;SDS011;5889;51.350;6.708;2023-04-24T09:20:30;9.83;;;6.70;;
11665;SDS011;5889;51.350;6.708;2023-04-24T09:22:57;12.67;;;7.47;;
11665;SDS011;5889;51.350;6.708;2023-04-24T09:25:26;9.30;;;7.03;;
11665;SDS011;5889;51.350;6.708;2023-04-24T09:28:01;10.17;;;6.73;;
11665;SDS011;5889;51.350;6.708;2023-04-24T09:30:29;12.70;;;7.53;;
11665;SDS011;5889;51.350;6.708;2023-04-24T09:35:40;9.50;;;5.83;;
11665;SDS011;5889;51.350;6.708;2023-04-24T09:38:08;10.80;;;6.60;;
11665;SDS011;5889;51.350;6.708;2023-04-24T09:40:37;10.60;;;7.40;;
11665;SDS011;5889;51.350;6.708;2023-04-24T09:43:04;12.63;;;6.67;;
11665;SDS011;5889;51.350;6.708;2023-04-24T09:45:36;11.20;;;6.70;;
11665;SDS011;5889;51.350;6.708;2023-04-24T09:48:04;15.03;;;8.10;;
11665;SDS011;5889;51.350;6.708;2023-04-24T09:50:32;13.73;;;8.33;;
11665;SDS011;5889;51.350;6.708;2023-04-24T09:53:01;15.20;;;7.40;;
11665;SDS011;5889;51.350;6.708;2023-04-24T09:55:30;14.30;;;7.13;;
11665;SDS011;5889;51.350;6.708;2023-04-24T09:57:59;10.83;;;6.87;;
11665;SDS011;5889;51.350;6.708;2023-04-24T10:00:31;9.23;;;5.67;;
11665;SDS011;5889;51.350;6.708;2023-04-24T10:03:13;11.30;;;5.87;;
11665;SDS011;5889;51.350;6.708;2023-04-24T10:05:40;13.07;;;5.87;;
11665;SDS011;5889;51.350;6.708;2023-04-24T10:08:12;13.30;;;5.70;;
11665;SDS011;5889;51.350;6.708;2023-04-24T10:10:40;13.53;;;5.80;;
11665;SDS011;5889;51.350;6.708;2023-04-24T10:13:11;12.47;;;4.23;;
11665;SDS011;5889;51.350;6.708;2023-04-24T10:15:41;10.63;;;5.17;;
11665;SDS011;5889;51.350;6.708;2023-04-24T10:18:08;11.60;;;4.63;;
11665;SDS011;5889;51.350;6.708;2023-04-24T10:20:38;11.57;;;4.73;;
11665;SDS011;5889;51.350;6.708;2023-04-24T10:23:05;10.00;;;4.00;;
11665;SDS011;5889;51.350;6.708;2023-04-24T10:25:33;13.10;;;4.80;;
11665;SDS011;5889;51.350;6.708;2023-04-24T10:28:15;16.73;;;4.77;;
11665;SDS011;5889;51.350;6.708;2023-04-24T10:30:53;12.30;;;4.40;;
11665;SDS011;5889;51.350;6.708;2023-04-24T10:49:11;16.73;;;5.67;;
11665;SDS011;5889;51.350;6.708;2023-04-24T10:51:45;10.53;;;4.53;;
11665;SDS011;5889;51.350;6.708;2023-04-24T10:54:23;13.87;;;5.40;;
11665;SDS011;5889;51.350;6.708;2023-04-24T10:56:51;17.87;;;6.53;;
11665;SDS011;5889;51.350;6.708;2023-04-24T10:59:25;17.37;;;5.83;;
11665;SDS011;5889;51.350;6.708;2023-04-24T11:01:53;14.53;;;5.83;;
11665;SDS011;5889;51.350;6.708;2023-04-24T11:04:40;15.13;;;5.60;;
11665;SDS011;5889;51.350;6.708;2023-04-24T11:11:12;16.40;;;6.47;;
11665;SDS011;5889;51.350;6.708;2023-04-24T11:14:29;14.67;;;5.40;;
11665;SDS011;5889;51.350;6.708;2023-04-24T11:20:08;11.80;;;4.83;;
11665;SDS011;5889;51.350;6.708;2023-04-24T11:22:42;11.93;;;4.80;;
11665;SDS011;5889;51.350;6.708;2023-04-24T11:25:14;14.87;;;4.90;;
11665;SDS011;5889;51.350;6.708;2023-04-24T11:37:01;9.63;;;3.87;;
11665;SDS011;5889;51.350;6.708;2023-04-24T11:39:50;10.77;;;4.20;;
11665;SDS011;5889;51.350;6.708;2023-04-24T11:42:52;15.47;;;3.87;;
11665;SDS011;5889;51.350;6.708;2023-04-24T11:45:48;11.83;;;3.83;;
11665;SDS011;5889;51.350;6.708;2023-04-24T11:48:44;9.93;;;3.17;;
11665;SDS011;5889;51.350;6.708;2023-04-24T11:51:11;9.80;;;3.03;;
11665;SDS011;5889;51.350;6.708;2023-04-24T11:53:40;9.70;;;3.70;;
11665;SDS011;5889;51.350;6.708;2023-04-24T11:56:08;5.23;;;2.70;;
11665;SDS011;5889;51.350;6.708;2023-04-24T11:58:35;13.57;;;3.23;;
11665;SDS011;5889;51.350;6.708;2023-04-24T12:01:03;11.13;;;3.33;;
11665;SDS011;5889;51.350;6.708;2023-04-24T12:03:30;8.07;;;3.50;;
11665;SDS011;5889;51.350;6.708;2023-04-24T12:06:06;8.53;;;3.07;;
11665;SDS011;5889;51.350;6.708;2023-04-24T12:08:33;9.00;;;3.30;;
11665;SDS011;5889;51.350;6.708;2023-04-24T12:11:02;11.70;;;3.80;;
11665;SDS011;5889;51.350;6.708;2023-04-24T12:13:32;11.73;;;3.60;;
11665;SDS011;5889;51.350;6.708;2023-04-24T12:15:59;10.77;;;3.10;;
11665;SDS011;5889;51.350;6.708;2023-04-24T12:18:27;8.27;;;2.53;;
11665;SDS011;5889;51.350;6.708;2023-04-24T12:20:54;9.00;;;3.00;;
11665;SDS011;5889;51.350;6.708;2023-04-24T12:23:33;7.93;;;2.50;;
11665;SDS011;5889;51.350;6.708;2023-04-24T12:26:04;11.07;;;3.07;;
11665;SDS011;5889;51.350;6.708;2023-04-24T12:28:34;7.00;;;2.73;;
11665;SDS011;5889;51.350;6.708;2023-04-24T12:31:02;7.60;;;2.53;;
11665;SDS011;5889;51.350;6.708;2023-04-24T12:33:33;7.07;;;2.77;;
11665;SDS011;5889;51.350;6.708;2023-04-24T12:36:21;6.23;;;2.50;;
11665;SDS011;5889;51.350;6.708;2023-04-24T12:38:56;8.27;;;2.70;;
11665;SDS011;5889;51.350;6.708;2023-04-24T12:41:31;7.93;;;2.77;;
11665;SDS011;5889;51.350;6.708;2023-04-24T12:44:02;6.10;;;2.67;;
11665;SDS011;5889;51.350;6.708;2023-04-24T12:46:41;6.97;;;2.17;;
11665;SDS011;5889;51.350;6.708;2023-04-24T12:49:12;6.70;;;2.33;;
11665;SDS011;5889;51.350;6.708;2023-04-24T12:51:42;6.47;;;2.30;;
11665;SDS011;5889;51.350;6.708;2023-04-24T12:54:13;6.33;;;2.40;;
11665;SDS011;5889;51.350;6.708;2023-04-24T12:56:48;7.13;;;2.30;;
11665;SDS011;5889;51.350;6.708;2023-04-24T12:59:18;5.73;;;1.70;;
11665;SDS011;5889;51.350;6.708;2023-04-24T13:01:47;5.87;;;1.97;;
11665;SDS011;5889;51.350;6.708;2023-04-24T13:04:20;7.97;;;1.90;;
11665;SDS011;5889;51.350;6.708;2023-04-24T13:06:48;5.53;;;1.60;;
11665;SDS011;5889;51.350;6.708;2023-04-24T13:09:17;4.40;;;1.63;;
11665;SDS011;5889;51.350;6.708;2023-04-24T13:11:54;5.03;;;1.90;;
11665;SDS011;5889;51.350;6.708;2023-04-24T13:14:26;8.13;;;1.83;;
11665;SDS011;5889;51.350;6.708;2023-04-24T13:16:58;4.33;;;1.70;;
11665;SDS011;5889;51.350;6.708;2023-04-24T13:19:28;3.60;;;1.73;;
11665;SDS011;5889;51.350;6.708;2023-04-24T13:22:04;3.80;;;1.70;;
11665;SDS011;5889;51.350;6.708;2023-04-24T13:24:33;4.50;;;1.80;;
11665;SDS011;5889;51.350;6.708;2023-04-24T13:27:06;4.00;;;1.33;;
11665;SDS011;5889;51.350;6.708;2023-04-24T13:29:36;3.43;;;1.63;;
11665;SDS011;5889;51.350;6.708;2023-04-24T13:32:04;5.50;;;1.97;;
11665;SDS011;5889;51.350;6.708;2023-04-24T13:34:34;2.30;;;1.37;;
11665;SDS011;5889;51.350;6.708;2023-04-24T13:37:02;2.87;;;1.30;;
11665;SDS011;5889;51.350;6.708;2023-04-24T13:39:31;3.53;;;1.20;;
11665;SDS011;5889;51.350;6.708;2023-04-24T13:42:00;2.50;;;1.63;;
11665;SDS011;5889;51.350;6.708;2023-04-24T13:44:30;2.80;;;1.20;;
11665;SDS011;5889;51.350;6.708;2023-04-24T13:46:58;3.97;;;1.60;;
11665;SDS011;5889;51.350;6.708;2023-04-24T13:49:26;7.50;;;1.60;;
11665;SDS011;5889;51.350;6.708;2023-04-24T13:51:55;3.60;;;1.60;;
11665;SDS011;5889;51.350;6.708;2023-04-24T13:54:24;2.20;;;1.30;;
11665;SDS011;5889;51.350;6.708;2023-04-24T13:56:51;3.33;;;1.43;;
11665;SDS011;5889;51.350;6.708;2023-04-24T13:59:19;2.47;;;1.30;;
11665;SDS011;5889;51.350;6.708;2023-04-24T14:01:49;3.80;;;1.20;;
11665;SDS011;5889;51.350;6.708;2023-04-24T14:04:18;4.23;;;1.30;;
11665;SDS011;5889;51.350;6.708;2023-04-24T14:06:46;2.00;;;1.30;;
11665;SDS011;5889;51.350;6.708;2023-04-24T14:09:23;4.50;;;1.60;;
11665;SDS011;5889;51.350;6.708;2023-04-24T14:11:59;3.03;;;1.20;;
11665;SDS011;5889;51.350;6.708;2023-04-24T14:14:37;5.57;;;1.80;;
11665;SDS011;5889;51.350;6.708;2023-04-24T14:17:08;5.10;;;1.30;;
11665;SDS011;5889;51.350;6.708;2023-04-24T14:19:39;4.40;;;1.40;;
11665;SDS011;5889;51.350;6.708;2023-04-24T14:22:07;5.30;;;1.23;;
11665;SDS011;5889;51.350;6.708;2023-04-24T14:24:34;3.30;;;1.27;;
11665;SDS011;5889;51.350;6.708;2023-04-24T14:27:01;2.17;;;1.27;;
11665;SDS011;5889;51.350;6.708;2023-04-24T14:29:28;2.47;;;1.57;;
11665;SDS011;5889;51.350;6.708;2023-04-24T14:31:55;4.57;;;1.60;;
11665;SDS011;5889;51.350;6.708;2023-04-24T14:34:23;4.23;;;1.30;;
11665;SDS011;5889;51.350;6.708;2023-04-24T14:36:52;2.93;;;1.53;;
11665;SDS011;5889;51.350;6.708;2023-04-24T14:39:22;3.30;;;1.27;;
11665;SDS011;5889;51.350;6.708;2023-04-24T14:41:49;4.43;;;1.40;;
11665;SDS011;5889;51.350;6.708;2023-04-24T14:44:15;3.30;;;1.80;;
11665;SDS011;5889;51.350;6.708;2023-04-24T14:46:42;4.47;;;1.20;;
11665;SDS011;5889;51.350;6.708;2023-04-24T14:49:09;4.93;;;1.80;;
11665;SDS011;5889;51.350;6.708;2023-04-24T14:51:38;4.60;;;1.60;;
11665;SDS011;5889;51.350;6.708;2023-04-24T14:54:05;4.27;;;1.50;;
11665;SDS011;5889;51.350;6.708;2023-04-24T14:56:33;2.97;;;1.50;;
11665;SDS011;5889;51.350;6.708;2023-04-24T15:02:08;3.67;;;1.37;;
11665;SDS011;5889;51.350;6.708;2023-04-24T15:04:35;3.83;;;1.50;;
11665;SDS011;5889;51.350;6.708;2023-04-24T15:09:49;3.60;;;1.70;;
11665;SDS011;5889;51.350;6.708;2023-04-24T15:12:22;3.13;;;1.63;;
11665;SDS011;5889;51.350;6.708;2023-04-24T15:14:49;4.43;;;1.80;;
11665;SDS011;5889;51.350;6.708;2023-04-24T15:17:17;4.20;;;1.70;;
11665;SDS011;5889;51.350;6.708;2023-04-24T15:19:44;3.17;;;1.40;;
11665;SDS011;5889;51.350;6.708;2023-04-24T15:22:14;4.00;;;1.53;;
11665;SDS011;5889;51.350;6.708;2023-04-24T15:25:12;3.83;;;1.37;;
11665;SDS011;5889;51.350;6.708;2023-04-24T15:27:46;3.27;;;1.60;;
11665;SDS011;5889;51.350;6.708;2023-04-24T15:33:00;5.57;;;2.10;;
11665;SDS011;5889;51.350;6.708;2023-04-24T15:35:44;5.03;;;2.33;;
11665;SDS011;5889;51.350;6.708;2023-04-24T15:41:17;1.90;;;1.70;;
11665;SDS011;5889;51.350;6.708;2023-04-24T15:43:44;4.20;;;2.00;;
11665;SDS011;5889;51.350;6.708;2023-04-24T15:46:13;3.00;;;1.90;;
11665;SDS011;5889;51.350;6.708;2023-04-24T15:48:54;3.20;;;2.10;;
11665;SDS011;5889;51.350;6.708;2023-04-24T15:51:38;5.43;;;2.30;;
11665;SDS011;5889;51.350;6.708;2023-04-24T15:54:06;4.67;;;1.90;;
11665;SDS011;5889;51.350;6.708;2023-04-24T15:56:34;4.33;;;1.90;;
11665;SDS011;5889;51.350;6.708;2023-04-24T15:59:01;3.00;;;2.00;;
11665;SDS011;5889;51.350;6.708;2023-04-24T16:01:29;3.37;;;1.87;;
11665;SDS011;5889;51.350;6.708;2023-04-24T16:04:03;4.57;;;2.00;;
11665;SDS011;5889;51.350;6.708;2023-04-24T16:06:32;4.20;;;2.00;;
11665;SDS011;5889;51.350;6.708;2023-04-24T16:09:00;2.83;;;1.67;;
11665;SDS011;5889;51.350;6.708;2023-04-24T16:11:27;4.63;;;1.60;;
11665;SDS011;5889;51.350;6.708;2023-04-24T16:14:01;2.87;;;1.50;;
11665;SDS011;5889;51.350;6.708;2023-04-24T16:16:35;7.80;;;1.70;;
11665;SDS011;5889;51.350;6.708;2023-04-24T16:19:13;4.80;;;2.43;;
11665;SDS011;5889;51.350;6.708;2023-04-24T16:21:44;5.03;;;1.73;;
11665;SDS011;5889;51.350;6.708;2023-04-24T16:24:17;4.70;;;1.90;;
11665;SDS011;5889;51.350;6.708;2023-04-24T16:26:53;4.07;;;1.93;;
11665;SDS011;5889;51.350;6.708;2023-04-24T16:32:11;2.63;;;1.70;;
11665;SDS011;5889;51.350;6.708;2023-04-24T16:35:01;3.53;;;1.73;;
11665;SDS011;5889;51.350;6.708;2023-04-24T16:54:23;5.80;;;1.87;;
11665;SDS011;5889;51.350;6.708;2023-04-24T16:57:16;5.00;;;1.77;;
11665;SDS011;5889;51.350;6.708;2023-04-24T16:59:44;2.70;;;1.67;;
11665;SDS011;5889;51.350;6.708;2023-04-24T17:02:14;3.93;;;1.60;;
11665;SDS011;5889;51.350;6.708;2023-04-24T17:04:42;4.73;;;2.10;;
11665;SDS011;5889;51.350;6.708;2023-04-24T17:07:13;5.40;;;2.73;;